Hamilton Township, New Jersey
Current Conditions -  °F | °C
As of 7:53 PM on Monday 20 Oct 2014 (Local Time) from KTTN Reporting Station
Clear Clear  
Wind Chill: 52°   Ceiling: Unl
Heat Index: 52°   Visibility: 10mi
Dew Point: 39°   Wind: 3mph
Humidity: 61%   Direction: 160°SSE
Pressure: 29.97"   Gusts: NA
Location:  40.1951°N, 74.7448°W
Report Text: KTTN 202353Z 16003KT 10SM CLR 11/04 A2997 RMK AO2 SLP143 T01110039 10161 20111 56003
Loading
Personal Weather Stations






























Interactive Weather Map
Tropical Storm Tracking
New forecast layout! Learn more

10-Day Weather Forecast

Advertisements
Track Severe Weather on mobile